Team Results

This is the team results viewer. You will be able to find the teams that have participated in many years of the KCIBR.
You can filter by year, team name, category and gender. If you get lost just press the reset button.

Individual Results

Year Team Bib Team Time Category Team Rank by Category Team Rank by Race Team Status Team City
2011 My other bike is a couch. 432 08:18:26 Mixed 4 Person 37 123/256 Whitehorse, YT
2011 Team Jam 241 08:18:29 Mixed 2 Person 9 124/256 Guelph, ON
2011 Off the Spokes 425 08:18:31 Mixed 4 Person 38 125/256 Whitehorse, YT
2011 Calvin 127 08:18:57 Mens Solo 20 126/256 Douglas, AK
2011 Soft and Supple 885 08:19:06 Mens 8 Person 1 127/256 Skagway, AK
2011 Speedy Reedy 151 08:19:12 Mens Solo 21 128/256 Juneau, AK
2011 Brokebutt Mountain 882 08:21:34 Mixed 8 Person 11 129/256 Whitehorse, YT
2011 Ammon A Bike 851 08:22:07 Mixed 8 Person 12 130/256 Whitehorse, YK
2011 Better be nice out. 137 08:22:17 Mens Solo 22 131/256 Whitehorse, YT
2011 Air North Flyers 468 08:24:23 Mixed 4 Person 39 132/256 Whitehorse, YT
2011 CYCLES OF DESTINY 433 08:24:45 Mixed 4 Person 40 133/256 Chugiak, AK
2011 Teach me how to Pedal 856 08:25:59 Mixed 8 Person 13 134/256 Whitehorse, YT
2011 More Shorts 815 08:27:17 Mixed 8 Person 14 135/256 Whitehorse, YT
2011 the palepony express 149 08:28:45 Mens Solo 23 136/256 victoria bc, bc
2011 CUTTERS 105 08:29:17 Mens Solo 24 137/256 Whitehorse, YT
2011 Wheeldog 152 08:29:25 Mens Solo 25 138/256 Haines, AK
2011 CPP-OAS er 129 08:29:39 Mens Solo 26 139/256 Atlin, BC
2011 Bonky Kong 231 08:29:48 Womens 2 Person 6 140/256 whitehorse, YT
2011 Cougars and Cubs 447 08:30:00 Mixed 4 Person 41 141/256 Whitehorse, YT
2011 Underhill Geomatics Red Force 842 08:30:04 Mixed 8 Person 15 142/256 Whitehorse, YT
2011 Sarah Balin' 470 08:30:30 Mens 4 Person 16 143/256 Juneau, AK
2011 EDI Blue 804 08:30:53 Mixed 8 Person 16 144/256 Whitehorse, YT
2011 Save a Horse, Ride a Schwinn 854 08:31:10 Mixed 8 Person 17 145/256 Whitehorse, YK
2011 Cadence Conniption 887 08:32:52 Mixed 8 Person 18 146/256 Whitehorse, YT
2011 Fogduckers 878 08:33:05 Mixed 8 Person 19 147/256 Whitehorse, YT
2011 P-Style 211 08:33:16 Womens 2 Person 7 148/256 Whitehorse, YT
2011 Wingin' It! 484 08:34:00 Womens 4 Person 8 149/256 Douglas, AK
2011 Bike to Party 828 08:34:07 Mixed 8 Person 20 150/256 Whitehorse, yt
2011 The Missing Links 860 08:34:28 Mixed 8 Person 21 151/256 Whitehorse, YT
2011 Belle and the Dragon 439 08:34:44 Mixed 4 Person 42 152/256 Whitehorse, YT
2011 Yukorn Cobbs 831 08:35:23 Mixed 8 Person 22 153/256 Whitehorse, YT
2011 JERRY and the PACE SETTERS 422 08:36:06 Mixed 4 Person 43 154/256 WHITEHORSE, YT
2011 Bryan and Amil 214 08:37:12 Mixed 2 Person 10 155/256 Whitehorse, YT
2011 LIVE NOW DIE LATER 458 08:40:30 Mixed 4 Person 44 156/256 Whitehorse, YT
2011 Cirque du Cycle 813 08:41:21 Womens 8 Person 4 157/256 Whitehorse, YT
2011 Double Dee and the Fun Bags 419 08:41:36 Womens 4 Person 9 158/256 Whitehorse, YT
2011 Border Riders 801 08:41:40 Mixed 8 Person 23 159/256 Haines, AK
2011 Are We There Yet? 104 08:41:45 Mens Solo 27 160/256 Whitehorse, YT
2011 Peter the Estimator 140 08:41:51 Mens Solo 28 161/256 whitehorse, yt
2011 Sons of Rambo 822 08:42:37 Mixed 8 Person 24 162/256 whitehorse, yt
2011 BANGARANG 841 08:43:56 Mixed 8 Person 25 163/256 Whitehorse, YT
2011 Tortuga 474 08:44:03 Mixed 4 Person 45 164/256 Whitehorse, YT
2011 On the road again 437 08:44:34 Mixed 4 Person 46 165/256 Whitehorse, YT
2011 The Shenanigans 829 08:44:43 Mixed 8 Person 26 166/256 Haines, AK
2011 We Wheel Finish! 891 08:45:23 Mixed 8 Person 27 167/256 Haines Junction, YT
2011 EDI White 802 08:47:30 Mixed 8 Person 28 168/256 Whitehorse, YT
2011 Branderpols 408 08:48:13 Mixed 4 Person 47 169/256 Juneau, Ak
2011 Sisterhood of the Travelling Panters 820 08:48:19 Womens 8 Person 5 170/256 Whitehorse, YT
2011 Les Valeureux Verts Vites 454 08:48:41 Mixed 4 Person 48 171/256 Whitehorse, YT
2011 Catchin'ass 850 08:49:00 Womens 8 Person 6 172/256 Haines, Ak
2011 TYHAC 805 08:50:54 Mixed 8 Person 29 173/256 Haines, AK
2011 Cycotic Boys 806 08:55:11 Mens 8 Person 2 174/256 Whitehorse, YK
2011 Gin and Kate Plus 8 814 08:56:11 Mixed 8 Person 30 175/256 Whitehorse, YT
2011 Gang Green 884 08:56:37 Mixed 8 Person 31 176/256 Haines, AK
2011 Teslin Rusty Sprockets 823 08:56:51 Mixed 8 Person 32 177/256 Teslin, YT
2011 Sprockettes II 478 08:57:01 Womens 4 Person 10 178/256 Fairbanks, AK
2011 Sprockettes I 477 08:57:04 Womens 4 Person 11 179/256 Ester, AK
2011 mudslingers 457 08:57:11 Mixed 4 Person 49 180/256 Whitehorse, yt
2011 Jean Machine 868 08:57:15 Mixed 8 Person 33 181/256 whtehorse, YT
2011 Yellow Jersey Thing 1 134 08:58:03 Mens Solo 29 182/256 Sitka, AK
2011 yellow jersey cycles 133 08:58:26 Mens Solo 30 183/256 sitka, ak
2011 Wheel 'em in 881 08:58:28 Mixed 8 Person 34 184/256 Whitehorse, YT
2011 Drummond Deraileurs 847 08:59:13 Mixed 8 Person 35 185/256 Haines Junction, YT
2011 Mustache Riders 849 09:01:13 Mixed 8 Person 36 186/256 Whitehorse, YT
2011 Mike Dutove 117 09:02:14 Mens Solo 31 187/256 Grande Prairie, AB
2011 Geoff 111 09:02:24 Mens Solo 32 188/256 Grande Prairie, AB
2011 Team Tricycle 401 09:02:31 Mixed 4 Person 50 189/256 Whitehorse, YT
2011 5 Flats n' 3 Spares 855 09:03:48 Mixed 8 Person 37 190/256 Whitehorse, YT
2011 Two Seconds 240 09:04:29 Mens 2 Person 20 191/256 Juneau, AK
2011 Chuck's Angels 434 09:04:51 Mixed 4 Person 51 192/256 Juneau, AK
2011 Don't Quit Now Howe 107 09:05:46 Mens Solo 33 193/256 Roberts Creek, BC
2011 Crank That 236 09:07:27 Womens 2 Person 8 194/256 Whitehorse, YT
2011 Hippie Kay-Yay Motherlovers 824 09:09:12 Mixed 8 Person 38 195/256 Whitehorse, YT
2011 Cycle-opses 862 09:10:44 Mixed 8 Person 39 196/256 Whitehorse, YK
2011 Team Kynan 875 09:10:54 Mixed 8 Person 40 197/256 whitehorse, YT
2011 Subway 835 09:11:34 Mixed 8 Person 41 198/256 Whitehorse, YT
2011 Formula 8's 811 09:12:18 Mixed 8 Person 42 199/256 Whitehorse, YT
2011 Snow White and the Seven Dwarfs 859 09:12:22 Womens 8 Person 7 200/256 Whitehorse, YT
2011 Colorado Belles 217 09:12:48 Womens 2 Person 9 201/256 Fort Collins, CO
2011 Moon Cycles 402 09:13:29 Womens 4 Person 12 202/256 Whitehorse, YT
2011 PG 13 & Older 870 09:14:53 Womens 8 Person 8 203/256 Whitehorse, YT
2011 Not This Time Lance 876 09:15:48 Mixed 8 Person 43 204/256 whitehorse, YT
2011 Cycle Relics 836 09:15:58 Mixed 8 Person 44 205/256 Juneau, AK
2011 Bikes for Beer 890 09:17:28 Womens 8 Person 9 206/256 Haines Junction, YT
2011 Huger Than Ever 819 09:18:39 Mixed 8 Person 45 207/256 Whitehorse, YT
2011 Ski Pat-Rollers 827 09:19:36 Mixed 8 Person 46 208/256 Whitehorse, YT
2011 Wheel Spoken 866 09:21:10 Mixed 8 Person 47 209/256 Whitehorse, YT
2011 Terrace Trekkers 812 09:21:21 Mixed 8 Person 48 210/256 Tagish, YT
2011 Bump n' Grinders 879 09:21:50 Mixed 8 Person 49 211/256 Whitehose, YT
2011 Dhal Kay Riders 874 09:26:40 Mixed 8 Person 50 212/256 Whitehorse, YT
2011 Ride On 834 09:27:14 Mixed 8 Person 51 213/256 Haines, AK
2011 Gear Girls 817 09:28:34 Womens 8 Person 10 214/256 Haines Junction, YT
2011 Cycotics 807 09:29:26 Mixed 8 Person 52 215/256 Whitehose, YK
2011 Sam's Fam 833 09:32:32 Mixed 8 Person 53 216/256 Whitehorse, YT
2011 Mudslides 871 09:33:30 Mixed 8 Person 54 217/256 Teslin, YT
2011 megasorass 857 09:34:07 Mixed 8 Person 55 218/256 Destruction Bay, YT
2011 QUATRO CERVESAS 462 09:42:30 Mixed 4 Person 52 219/256 Juneau, AK
2011 cycle katz 453 09:43:10 Mixed 4 Person 53 220/256 Fairbanks, AK
2011 Layin' Rubb 830 09:43:52 Womens 8 Person 11 221/256 Whitehorse, YT
2011 Soshy Sixties Sisters 838 09:45:37 Womens 8 Person 12 222/256 Whitehorse, YT
2011 No Haines No Gain 242 09:46:53 Mens 2 Person 21 223/256 Brampton, ON
2011 Squirrel Camp 832 09:48:48 Mixed 8 Person 56 224/256 Haines Junction, YT
2011 I'd Tap That 858 09:49:22 Mixed 8 Person 57 225/256 Whitehorse, yt
2011 The Road Warriors 877 09:51:41 Mixed 8 Person 58 226/256 Whitehorse, YT
2011 Aging Divas in Denial 416 09:52:41 Womens 4 Person 13 227/256 Juneau, AK
2011 Kickstand Ninja's 837 09:54:05 Mixed 8 Person 59 228/256 Whitehorse Yukon, YT
2011 Glam Dames 212 09:56:20 Womens 2 Person 10 229/256 Whitehorse, YT
2011 Lick My Seat 844 10:01:05 Mixed 8 Person 60 230/256 Whitehorse, YT
2011 BIRTHDAY 893 10:05:02 Mixed 8 Person 61 231/256 Whitehorse, YT
2011 Uni-Cycles 840 10:05:20 Womens 8 Person 13 232/256 Whitehorse, YT
2011 JELS 466 10:05:26 Womens 4 Person 14 233/256 Haines Junction, YT
2011 Horizontals 880 10:09:31 Mixed 8 Person 62 234/256 whitehorse, yt
2011 Team Cobra 873 10:10:33 Mixed 8 Person 63 235/256 Whitehorse, YT
2011 mid life crisis 115 10:12:05 Mens Solo 34 236/256 Haines Junction, YT
2011 Tyrannocyclists 863 10:12:43 Mixed 8 Person 64 237/256 Toronto, ON
2011 Awesome Possum 872 10:13:58 Mixed 8 Person 65 238/256 Whitehorse, YT
2011 Cyclebetes Tandem 888 10:14:02 Mixed 8 Person 66 239/256 Whitehorse, YT
2011 Queer As Spoke 867 10:14:33 Womens 8 Person 14 240/256 Whitehorse, YT
2011 Rocketman Joe 106 10:16:58 Mens Solo 35 241/256 Anchorage, AK
2011 Teslin's Pedalgogical Darling's 803 10:17:00 Mixed 8 Person 67 242/256 Teslin, YT
2011 Lean Mean Dream Team 810 10:23:31 Womens 8 Person 15 243/256 Whitehorse, YT
2011 The Royal Family 821 10:33:56 Mixed 8 Person 68 244/256 Tagish, YT
2011 Training Wheels 846 10:35:16 Mixed 8 Person 69 245/256 Whitehorse, YT
2011 On With the Motley 865 10:42:10 Mixed 8 Person 70 246/256 Whitehorse, YT
2011 Richard and the Two-Wheeled Attack Team 843 10:48:25 Mixed 8 Person 71 247/256 Whitehorse, YT
2011 Bad Bones Bikers 852 10:53:59 Mixed 8 Person 72 248/256 Whitehorse, YT
2011 Wheelin' & Dealin' 892 10:57:46 Womens 8 Person 16 249/256 Whitehorse, YT
2011 Cyclepaths 869 11:03:35 Womens 8 Person 17 250/256 Whitehorse, YT
2011 Dynamic Dynamo 124 11:14:18 Mens Solo 36 251/256 Juneau, AK
2011 Bull Shifters 818 11:15:36 Mixed 8 Person 73 252/256 Whitehorse, YT
2011 Alex Dings 130 11:27:46 Mens Solo 37 253/256 Whitehorse, yt
2011 Young and the Restless 465 11:36:00 Mixed 4 Person 54 254/256 Douglas, AK
2011 ISHES 889 12:15:51 Womens 8 Person 18 255/256 Haines Junction, YT
2011 Visible Light 128 12:25:17 Mens Solo 38 256/256 Whitehorse, YT
2010 Cadence Cult 891 00:00:00 Mixed 8 Person 0 0/0 dns
2010 Chena to Chilkat to Chilkoot 874 00:00:00 Mixed 8 Person 0 0/0 dns
2010 Ciclismo Chica 107 00:00:00 Womens Solo 0 0/0 dns
2010 The Macho Mexicans 835 00:00:00 Mixed 8 Person 0 0/0 dns
2010 McJones 202 00:00:00 Mixed 2 Person 0 0/0 dns
2010 mountainous methane 423 00:00:00 Mixed 4 Person 0 0/0 dns
2010 Smitin 4 you 460 00:00:00 Mixed 4 Person 0 0/0 dns
2010 What Would Floyd Do 201 00:00:00 Mens 2 Person 0 0/0 dns
2010 Raven Racing 214 07:00:21 Mens 2 Person 1 1/258
2010 Bring Back The Draft 226 07:00:30 Mens 2 Person 2 2/258
2010 Coleman Stove 139 07:00:56 Mens Solo 1 3/258
2010 Y It So Dumb 220 07:01:07 Mens 2 Person 3 4/258
2010 What was I thinking 120 07:12:04 Mens Solo 2 5/258
2010 Can Kiwi 130 07:12:05 Mens Solo 3 6/258
2010 Team Kunde Hospital 418 07:26:54 Mens 4 Person 1 7/258
2010 Floyd Landis Pharmaceuticals 481 07:33:03 Mens 4 Person 2 8/258
2010 We Should be Cyclists 441 07:33:07 Mens 4 Person 3 9/258
2010 James Skimo Minifie 115 07:39:04 Mens Solo 4 10/258
2010 SMS alone 109 07:39:10 Mens Solo 5 11/258
2010 The Full Catastrophe 208 07:48:25 Mens 2 Person 4 12/258
2010 Raven Mad 116 07:48:25 Mens Solo 6 13/258
2010 The Full Catastrophe 208 07:48:25 Mens 2 Person 4 14/258
2010 Sprocket Rockets 447 07:51:35 Mens 4 Person 4 15/258
2010 Beaner Rats 443 07:54:26 Mens 4 Person 5 16/258
2010 TOUR DA HAINES 453 07:56:39 Mixed 4 Person 1 17/258
2010 Glass 137 07:59:45 Mens Solo 7 18/258
2010 Addicted to Crank 477 08:02:36 Mixed 4 Person 2 19/258
2010 Kitchen Pass 444 08:03:59 Mens 4 Person 6 20/258
2010 mad mattz 123 08:09:07 Mens Solo 8 21/258
2010 Fall From Grace 218 08:13:43 Mixed 2 Person 1 22/258
2010 Eporiffic 416 08:14:55 Mixed 4 Person 3 23/258
2010 Bulbasaur Batallion 463 08:15:42 Mens 4 Person 7 24/258
2010 team fiesta 485 08:16:26 Mixed 4 Person 4 25/258
2010 Tin Foil Hat 210 08:21:10 Mens 2 Person 5 26/258
2010 Gina and the Jets 455 08:24:15 Mixed 4 Person 5 27/258
2010 Tacoballs 428 08:25:10 Mixed 4 Person 6 28/258
2010 I love big bottom brackets 219 08:30:07 Womens 2 Person 1 29/258
2010 Team Leisure 104 08:30:12 Mens Solo 9 30/258
2010 world champion of the world 118 08:30:33 Mens Solo 10 31/258
2010 Scott Fischer 117 08:30:47 Mens Solo 11 32/258
2010 Floyd is my Co-Pilot 467 08:32:15 Mixed 4 Person 7 33/258
2010 Graham's Bike Team 486 08:35:31 Mens 4 Person 8 34/258
2010 Long Live Levesque 468 08:36:27 Mens 4 Person 9 35/258
2010 SulliCon Duo 217 08:37:39 Mixed 2 Person 2 36/258
2010 Two for the Road 206 08:37:47 Mens 2 Person 6 37/258
2010 Medium Sockeye Stew 438 08:42:02 Mens 4 Person 10 38/258
2010 Cycotics 850 08:42:29 Mixed 8 Person 1 39/258
2010 One Man Wolfpack 140 08:44:10 Mens Solo 12 40/258
2010 TI Cycle 112 08:44:25 Mens Solo 13 41/258
2010 Jud 126 08:44:36 Mens Solo 14 42/258
2010 TI Cycle 2 113 08:44:45 Mens Solo 15 43/258
2010 Sing Fat Lady SING 204 08:45:42 Mixed 2 Person 3 44/258
2010 C.A.L.L. Girls 459 08:45:55 Womens 4 Person 1 45/258
2010 Leben ist Schwer 221 08:45:55 Mens 2 Person 7 46/258
2010 C.A.L.L. Girls 459 08:45:55 Womens 4 Person 1 47/258
2010 Salmon Run 216 08:51:03 Mixed 2 Person 4 48/258
2010 Mitkof Island Raiders 413 08:52:03 Mens 4 Person 11 49/258
2010 Red Banjo - 5 Finger Pickers 411 08:52:19 Mixed 4 Person 8 50/258
2010 Spokin' Four 445 08:53:10 Womens 4 Person 2 51/258
2010 Skagway Coyotes 472 08:56:20 Mixed 4 Person 9 52/258
2010 Neisyeemoy Briner 439 08:56:38 Mixed 4 Person 10 53/258
2010 The Seagull 127 08:56:41 Mens Solo 16 54/258
2010 Devy Sprocket & WildFrontTire 223 08:56:50 Mens 2 Person 8 55/258
2010 Snot Rocket 211 08:57:08 Mens 2 Person 9 56/258
2010 Smokin' Pedals (Paws) Kennel 205 08:57:16 Mixed 2 Person 5 57/258
2010 Lactic Acid Trip 213 08:57:23 Mixed 2 Person 6 58/258

Pages